createdAt,value
2022-10-18T00:01:10.994Z,40.22
2022-10-18T00:03:39.683Z,36.70
2022-10-18T00:06:11.784Z,43.17
2022-10-18T00:08:39.773Z,37.58
2022-10-18T00:11:08.536Z,33.00
2022-10-18T00:13:37.775Z,35.90
2022-10-18T00:16:15.111Z,36.70
2022-10-18T00:18:44.234Z,37.92
2022-10-18T00:21:19.034Z,34.30
2022-10-18T00:23:48.894Z,32.28
2022-10-18T00:26:20.545Z,35.80
2022-10-18T00:28:53.709Z,35.03
2022-10-18T00:31:26.806Z,33.90
2022-10-18T00:33:58.284Z,42.20
2022-10-18T00:36:28.750Z,31.90
2022-10-18T00:38:57.250Z,42.00
2022-10-18T00:41:29.733Z,36.60
2022-10-18T00:44:02.309Z,34.95
2022-10-18T00:46:34.084Z,38.10
2022-10-18T00:49:07.534Z,40.65
2022-10-18T00:51:42.603Z,44.25
2022-10-18T00:54:11.474Z,48.45
2022-10-18T00:56:39.935Z,37.03
2022-10-18T00:59:08.511Z,42.28
2022-10-18T01:01:37.903Z,40.53
2022-10-18T01:04:05.975Z,37.22
2022-10-18T01:06:50.576Z,33.63
2022-10-18T01:09:29.739Z,33.75
2022-10-18T01:12:20.471Z,33.75
2022-10-18T01:15:03.411Z,34.97
2022-10-18T01:17:44.346Z,35.42
2022-10-18T01:21:06.804Z,33.58
2022-10-18T01:24:01.461Z,40.72
2022-10-18T01:27:01.790Z,42.97
2022-10-18T01:29:50.709Z,43.13
2022-10-18T01:32:26.576Z,34.40
2022-10-18T01:35:03.939Z,45.92
2022-10-18T01:37:35.404Z,38.80
2022-10-18T01:40:07.636Z,38.60
2022-10-18T01:42:35.519Z,35.63
2022-10-18T01:45:08.428Z,35.22
2022-10-18T01:47:39.254Z,33.45
2022-10-18T01:50:08.298Z,33.72
2022-10-18T01:52:36.334Z,38.55
2022-10-18T01:55:07.150Z,38.90
2022-10-18T01:57:41.455Z,35.85
2022-10-18T02:00:17.461Z,34.10
2022-10-18T02:02:54.288Z,37.72
2022-10-18T02:05:33.249Z,32.53
2022-10-18T02:08:23.241Z,35.38
2022-10-18T02:10:58.734Z,37.47
2022-10-18T02:13:34.291Z,42.80
2022-10-18T02:16:13.020Z,48.83
2022-10-18T02:18:49.904Z,35.55
2022-10-18T02:21:24.633Z,39.10
2022-10-18T02:23:53.089Z,42.57
2022-10-18T02:26:21.312Z,45.05
2022-10-18T02:28:50.289Z,53.55
2022-10-18T02:31:26.372Z,48.03
2022-10-18T02:34:02.369Z,49.58
2022-10-18T02:36:38.122Z,39.63
2022-10-18T02:39:16.661Z,52.95
2022-10-18T02:41:45.038Z,51.22
2022-10-18T02:44:13.231Z,51.45
2022-10-18T02:46:42.838Z,36.75
2022-10-18T02:49:11.979Z,37.80
2022-10-18T02:51:39.791Z,39.40
2022-10-18T02:54:08.442Z,40.35
2022-10-18T02:56:36.664Z,36.08
2022-10-18T02:59:07.227Z,45.97
2022-10-18T03:01:36.668Z,40.60
2022-10-18T03:04:05.331Z,44.17
2022-10-18T03:06:35.159Z,34.92
2022-10-18T03:09:04.591Z,42.92
2022-10-18T03:11:32.779Z,36.53
2022-10-18T03:14:01.809Z,39.28
2022-10-18T03:16:29.977Z,42.85
2022-10-18T03:18:57.923Z,40.40
2022-10-18T03:21:26.036Z,34.47
2022-10-18T03:23:56.015Z,43.05
2022-10-18T03:26:24.084Z,39.90
2022-10-18T03:28:52.163Z,43.30
2022-10-18T03:31:20.426Z,49.85
2022-10-18T03:33:48.593Z,32.90
2022-10-18T03:36:18.356Z,37.70
2022-10-18T03:38:46.572Z,41.75
2022-10-18T03:41:15.720Z,42.17
2022-10-18T03:43:43.741Z,34.30
2022-10-18T03:46:11.649Z,30.55
2022-10-18T03:48:39.465Z,33.70
2022-10-18T03:51:07.612Z,39.28
2022-10-18T03:53:44.377Z,37.92
2022-10-18T03:56:12.242Z,39.00
2022-10-18T03:58:41.344Z,34.97
2022-10-18T04:01:09.330Z,32.65
2022-10-18T04:03:37.217Z,43.95
2022-10-18T04:06:05.252Z,34.58
2022-10-18T04:08:33.091Z,36.50
2022-10-18T04:11:08.243Z,38.00
2022-10-18T04:13:36.305Z,46.10
2022-10-18T04:16:05.995Z,46.92
2022-10-18T04:18:33.763Z,54.05
2022-10-18T04:21:01.705Z,42.38
2022-10-18T04:23:31.800Z,51.88
2022-10-18T04:26:02.086Z,60.90
2022-10-18T04:28:36.229Z,66.07
2022-10-18T04:31:06.408Z,72.10
2022-10-18T04:33:34.377Z,53.45
2022-10-18T04:36:03.573Z,77.80
2022-10-18T04:38:31.573Z,86.72
2022-10-18T04:40:59.431Z,51.15
2022-10-18T04:43:28.716Z,52.15
2022-10-18T04:45:56.816Z,55.05
2022-10-18T04:48:26.776Z,47.60
2022-10-18T04:50:54.625Z,54.15
2022-10-18T04:53:25.832Z,49.13
2022-10-18T04:55:54.061Z,46.67
2022-10-18T04:58:22.044Z,47.50
2022-10-18T05:00:50.720Z,46.85
2022-10-18T05:03:20.685Z,61.50
2022-10-18T05:06:01.374Z,49.60
2022-10-18T05:08:32.865Z,47.70
2022-10-18T05:11:01.721Z,47.83
2022-10-18T05:13:30.730Z,46.03
2022-10-18T05:16:00.126Z,46.97
2022-10-18T05:18:28.071Z,49.33
2022-10-18T05:20:57.465Z,44.10
2022-10-18T05:23:25.852Z,47.08
2022-10-18T05:25:54.248Z,50.83
2022-10-18T05:28:41.750Z,55.65
2022-10-18T05:31:12.008Z,57.75
2022-10-18T05:33:40.572Z,46.63
2022-10-18T05:36:10.571Z,49.65
2022-10-18T05:38:41.858Z,42.50
2022-10-18T05:41:10.714Z,45.97
2022-10-18T05:43:39.275Z,45.03
2022-10-18T05:46:13.681Z,50.80
2022-10-18T05:48:44.041Z,49.03
2022-10-18T05:51:13.194Z,52.85
2022-10-18T05:53:41.135Z,54.15
2022-10-18T05:56:12.418Z,54.00
2022-10-18T05:58:41.552Z,56.80
2022-10-18T06:01:10.428Z,55.08
2022-10-18T06:03:38.599Z,61.22
2022-10-18T06:06:11.179Z,62.58
2022-10-18T06:08:42.260Z,68.90
2022-10-18T06:11:20.730Z,68.45
2022-10-18T06:13:51.406Z,72.93
2022-10-18T06:16:22.855Z,70.20
2022-10-18T06:18:53.905Z,71.47
2022-10-18T06:21:23.292Z,71.72
2022-10-18T06:23:54.788Z,78.82
2022-10-18T06:26:23.146Z,79.65
2022-10-18T06:28:51.447Z,73.30
2022-10-18T06:31:22.304Z,75.45
2022-10-18T06:33:50.525Z,74.50
2022-10-18T06:36:23.982Z,83.68
2022-10-18T06:38:56.226Z,80.68
2022-10-18T06:41:24.299Z,87.38
2022-10-18T06:43:56.919Z,127.70
2022-10-18T06:46:25.692Z,110.10
2022-10-18T06:48:53.678Z,128.85
2022-10-18T06:51:22.567Z,220.95
2022-10-18T06:54:13.002Z,127.60
2022-10-18T06:56:41.331Z,127.63
2022-10-18T06:59:09.337Z,224.75
2022-10-18T07:01:38.294Z,199.23
2022-10-18T07:04:07.336Z,173.43
2022-10-18T07:06:37.968Z,75.70
2022-10-18T07:09:05.863Z,72.75
2022-10-18T07:11:33.674Z,74.43
2022-10-18T07:14:05.126Z,68.75
2022-10-18T07:16:34.673Z,72.38
2022-10-18T07:19:03.140Z,69.20
2022-10-18T07:21:31.745Z,73.95
2022-10-18T07:24:01.382Z,65.60
2022-10-18T07:26:33.106Z,71.35
2022-10-18T07:29:07.991Z,66.97
2022-10-18T07:31:38.489Z,60.45
2022-10-18T07:34:07.815Z,58.83
2022-10-18T07:36:37.222Z,60.35
2022-10-18T07:39:05.924Z,54.58
2022-10-18T07:41:36.057Z,47.28
2022-10-18T07:44:05.775Z,51.00
2022-10-18T07:46:34.050Z,49.85
2022-10-18T07:49:01.960Z,46.65
2022-10-18T07:51:32.652Z,49.20
2022-10-18T07:54:00.407Z,47.83
2022-10-18T07:56:29.531Z,51.33
2022-10-18T07:58:57.521Z,46.38
2022-10-18T08:01:31.571Z,46.85
2022-10-18T08:04:06.101Z,49.95
2022-10-18T08:06:36.671Z,45.40
2022-10-18T08:09:05.850Z,47.10
2022-10-18T08:11:35.947Z,45.60
2022-10-18T08:14:04.882Z,49.65
2022-10-18T08:16:34.635Z,46.35
2022-10-18T08:19:02.623Z,47.58
2022-10-18T08:21:30.767Z,43.28
2022-10-18T08:23:58.715Z,47.42
2022-10-18T08:26:26.974Z,43.22
2022-10-18T08:29:10.265Z,40.88
2022-10-18T08:31:44.576Z,39.92
2022-10-18T08:34:17.192Z,41.97
2022-10-18T08:36:50.953Z,34.83
2022-10-18T08:39:19.443Z,34.50
2022-10-18T08:42:16.077Z,37.00
2022-10-18T08:44:48.693Z,37.13
2022-10-18T08:47:21.650Z,38.50
2022-10-18T08:49:54.825Z,35.97
2022-10-18T08:52:33.401Z,34.35
2022-10-18T08:55:08.029Z,32.95
2022-10-18T08:57:36.313Z,33.25
2022-10-18T09:00:17.085Z,33.50
2022-10-18T09:03:15.586Z,33.50
2022-10-18T09:05:52.773Z,33.67
2022-10-18T09:08:49.852Z,33.95
2022-10-18T09:11:47.138Z,31.65
2022-10-18T09:14:57.330Z,34.35
2022-10-18T09:17:43.330Z,27.67
2022-10-18T09:22:56.301Z,29.17
2022-10-18T09:25:29.522Z,30.58
2022-10-18T09:28:16.360Z,31.67
2022-10-18T09:30:59.456Z,29.75
2022-10-18T09:33:46.945Z,29.50
2022-10-18T09:36:21.736Z,28.90
2022-10-18T09:38:58.545Z,29.48
2022-10-18T09:41:40.872Z,28.25
2022-10-18T09:44:19.865Z,33.40
2022-10-18T09:46:55.799Z,24.88
2022-10-18T09:49:30.477Z,25.25
2022-10-18T09:52:08.023Z,16.25
2022-10-18T09:54:44.312Z,22.40
2022-10-18T09:57:23.460Z,23.65
2022-10-18T09:59:51.465Z,24.05
2022-10-18T10:02:23.195Z,15.35
2022-10-18T10:04:54.060Z,23.88
2022-10-18T10:07:29.931Z,22.42
2022-10-18T10:10:13.377Z,25.67
2022-10-18T10:12:43.947Z,17.92
2022-10-18T10:15:22.586Z,20.42
2022-10-18T10:18:00.229Z,19.52
2022-10-18T10:20:37.022Z,19.33
2022-10-18T10:23:20.323Z,22.35
2022-10-18T10:25:53.110Z,20.05
2022-10-18T10:28:28.840Z,19.17
2022-10-18T10:31:25.679Z,19.17
2022-10-18T10:34:01.701Z,16.75
2022-10-18T10:36:31.545Z,16.52
2022-10-18T10:39:12.631Z,15.80
2022-10-18T10:41:41.618Z,16.65
2022-10-18T10:44:17.451Z,17.17
2022-10-18T10:46:48.601Z,17.02
2022-10-18T10:49:39.634Z,14.02
2022-10-18T10:52:27.794Z,15.95
2022-10-18T10:55:33.982Z,11.98
2022-10-18T10:58:03.193Z,15.70
2022-10-18T11:00:40.637Z,13.65
2022-10-18T11:03:27.939Z,13.43
2022-10-18T11:06:00.300Z,15.48
2022-10-18T11:08:36.017Z,12.05
2022-10-18T11:11:22.886Z,12.80
2022-10-18T11:14:13.803Z,11.85
2022-10-18T11:16:58.780Z,13.65
2022-10-18T11:19:39.264Z,12.85
2022-10-18T11:22:17.258Z,12.25
2022-10-18T11:24:48.100Z,11.07
2022-10-18T11:27:27.424Z,11.45
2022-10-18T11:30:21.661Z,10.48
2022-10-18T11:33:10.094Z,11.23
2022-10-18T11:35:50.181Z,11.32
2022-10-18T11:38:37.289Z,12.02
2022-10-18T11:41:37.517Z,10.60
2022-10-18T11:44:24.822Z,11.50
2022-10-18T11:47:08.411Z,10.45
2022-10-18T11:49:55.704Z,11.18
2022-10-18T11:52:39.552Z,13.10
2022-10-18T11:55:39.981Z,8.82
2022-10-18T11:58:31.875Z,11.82
2022-10-18T12:01:13.122Z,11.00
2022-10-18T12:03:59.360Z,11.15
2022-10-18T12:06:34.963Z,11.00
2022-10-18T12:09:14.495Z,9.57
2022-10-18T12:11:55.502Z,12.23
2022-10-18T12:14:29.750Z,8.85
2022-10-18T12:17:41.702Z,9.73
2022-10-18T12:19:59.301Z,8.80
2022-10-18T12:22:36.170Z,11.00
2022-10-18T12:25:04.912Z,10.20
2022-10-18T12:27:40.939Z,7.60
2022-10-18T12:30:24.749Z,11.13
2022-10-18T12:33:26.758Z,9.32
2022-10-18T12:36:11.473Z,7.18
2022-10-18T12:38:45.378Z,8.45
2022-10-18T12:41:22.296Z,6.82
2022-10-18T12:43:58.940Z,7.25
2022-10-18T12:46:46.795Z,7.20
2022-10-18T12:49:27.399Z,9.73
2022-10-18T12:51:59.565Z,6.63
2022-10-18T12:54:31.233Z,6.68
2022-10-18T12:57:01.908Z,4.97
2022-10-18T12:59:51.070Z,5.57
2022-10-18T13:02:31.575Z,4.18
2022-10-18T13:05:33.790Z,6.90
2022-10-18T13:08:41.878Z,6.38
2022-10-18T13:11:33.348Z,4.10
2022-10-18T13:14:59.094Z,5.30
2022-10-18T13:17:43.565Z,4.25
2022-10-18T13:20:38.528Z,6.50
2022-10-18T13:23:33.968Z,8.25
2022-10-18T13:26:21.793Z,4.75
2022-10-18T13:29:05.148Z,5.55
2022-10-18T13:31:43.541Z,6.22
2022-10-18T13:34:25.857Z,6.10
2022-10-18T13:37:01.821Z,7.80
2022-10-18T13:39:32.198Z,6.88
2022-10-18T13:42:32.156Z,6.25
2022-10-18T13:45:44.471Z,6.75
2022-10-18T13:48:48.311Z,5.18
2022-10-18T13:51:48.366Z,4.80
2022-10-18T13:54:55.926Z,5.22
2022-10-18T13:57:51.531Z,4.65
2022-10-18T14:00:55.311Z,4.72
2022-10-18T14:03:57.614Z,5.32
2022-10-18T14:06:34.592Z,4.90
2022-10-18T14:09:25.685Z,4.65
2022-10-18T14:12:19.025Z,5.03
2022-10-18T14:14:56.775Z,5.57
2022-10-18T14:17:35.095Z,4.18
2022-10-18T14:20:17.214Z,4.65
2022-10-18T14:22:53.486Z,6.38
2022-10-18T14:25:27.636Z,5.28
2022-10-18T14:28:13.960Z,4.70
2022-10-18T14:30:54.730Z,8.85
2022-10-18T14:33:31.604Z,4.32
2022-10-18T14:36:05.597Z,5.82
2022-10-18T14:38:36.330Z,5.57
2022-10-18T14:41:07.095Z,4.63
2022-10-18T14:44:21.058Z,7.13
2022-10-18T14:46:52.596Z,5.20
2022-10-18T14:49:21.803Z,7.03
2022-10-18T14:51:52.825Z,5.57
2022-10-18T14:54:30.666Z,3.80
2022-10-18T14:57:01.254Z,4.10
2022-10-18T14:59:37.593Z,6.32
2022-10-18T15:02:15.155Z,5.05
2022-10-18T15:04:45.908Z,4.45
2022-10-18T15:07:17.475Z,6.05
2022-10-18T15:09:47.321Z,5.72
2022-10-18T15:12:17.344Z,3.42
2022-10-18T15:14:48.317Z,5.47
2022-10-18T15:17:22.173Z,4.03
2022-10-18T15:19:59.423Z,4.35
2022-10-18T15:22:33.058Z,2.97
2022-10-18T15:25:16.895Z,3.17
2022-10-18T15:27:49.680Z,6.80
2022-10-18T15:30:27.760Z,6.00
2022-10-18T15:32:59.657Z,3.22
2022-10-18T15:35:31.870Z,4.82
2022-10-18T15:38:12.475Z,5.38
2022-10-18T15:40:42.479Z,3.47
2022-10-18T15:43:36.742Z,4.85
2022-10-18T15:46:07.087Z,4.82
2022-10-18T15:48:38.516Z,5.57
2022-10-18T15:51:10.161Z,3.63
2022-10-18T15:53:52.010Z,4.63
2022-10-18T15:56:38.276Z,4.75
2022-10-18T15:59:22.137Z,3.80
2022-10-18T16:01:58.941Z,6.70
2022-10-18T16:04:34.545Z,6.47
2022-10-18T16:07:02.278Z,6.10
2022-10-18T16:09:30.066Z,4.45
2022-10-18T16:11:58.460Z,5.35
2022-10-18T16:14:27.020Z,4.85
2022-10-18T16:17:07.115Z,6.85
2022-10-18T16:19:34.875Z,4.93
2022-10-18T16:22:06.593Z,6.28
2022-10-18T16:24:35.314Z,6.75
2022-10-18T16:27:03.340Z,5.78
2022-10-18T16:29:33.187Z,4.28
2022-10-18T16:32:02.339Z,7.13
2022-10-18T16:34:32.054Z,5.53
2022-10-18T16:37:00.054Z,7.40
2022-10-18T16:39:29.841Z,6.45
2022-10-18T16:41:57.598Z,5.47
2022-10-18T16:44:25.436Z,5.43
2022-10-18T16:46:56.315Z,6.85
2022-10-18T16:49:26.645Z,9.00
2022-10-18T16:51:55.246Z,9.73
2022-10-18T16:54:23.580Z,12.30
2022-10-18T16:56:51.396Z,6.90
2022-10-18T16:59:25.736Z,7.13
2022-10-18T17:01:53.625Z,5.82
2022-10-18T17:04:21.533Z,6.68
2022-10-18T17:06:54.256Z,6.47
2022-10-18T17:09:21.977Z,7.93
2022-10-18T17:11:49.810Z,11.07
2022-10-18T17:14:17.541Z,10.32
2022-10-18T17:16:48.287Z,6.40
2022-10-18T17:22:05.706Z,8.15
2022-10-18T17:24:34.138Z,8.63
2022-10-18T17:27:02.084Z,5.43
2022-10-18T17:29:29.819Z,7.95
2022-10-18T17:31:57.585Z,8.75
2022-10-18T17:34:25.736Z,11.00
2022-10-18T17:36:54.218Z,5.80
2022-10-18T17:39:23.353Z,6.63
2022-10-18T17:41:51.065Z,8.10
2022-10-18T17:44:18.800Z,11.97
2022-10-18T17:46:46.558Z,8.00
2022-10-18T17:49:15.449Z,11.07
2022-10-18T17:51:46.341Z,8.83
2022-10-18T17:54:14.175Z,9.23
2022-10-18T17:56:45.048Z,13.77
2022-10-18T17:59:12.818Z,14.00
2022-10-18T18:01:40.668Z,15.30
2022-10-18T18:04:08.496Z,16.77
2022-10-18T18:06:39.031Z,15.50
2022-10-18T18:09:13.961Z,15.40
2022-10-18T18:11:45.420Z,17.40
2022-10-18T18:14:13.224Z,14.27
2022-10-18T18:16:44.077Z,14.13
2022-10-18T18:19:13.568Z,13.60
2022-10-18T18:21:42.704Z,17.47
2022-10-18T18:24:11.795Z,11.90
2022-10-18T18:26:41.395Z,13.10
2022-10-18T18:29:12.783Z,14.67
2022-10-18T18:31:43.758Z,12.53
2022-10-18T18:34:12.463Z,11.70
2022-10-18T18:36:42.750Z,10.63
2022-10-18T18:39:20.279Z,11.37
2022-10-18T18:42:06.937Z,14.87
2022-10-18T18:44:37.765Z,12.63
2022-10-18T18:47:10.873Z,14.00
2022-10-18T18:49:41.091Z,10.30
2022-10-18T18:52:08.832Z,13.83
2022-10-18T18:54:36.816Z,9.97
2022-10-18T18:57:05.291Z,15.20
2022-10-18T18:59:33.024Z,9.03
2022-10-18T19:02:02.168Z,13.60
2022-10-18T19:04:30.514Z,12.27
2022-10-18T19:06:58.261Z,10.57
2022-10-18T19:09:27.302Z,10.83
2022-10-18T19:11:56.526Z,12.30
2022-10-18T19:14:25.711Z,13.43
2022-10-18T19:16:55.429Z,13.43
2022-10-18T19:19:26.541Z,12.67
2022-10-18T19:21:56.758Z,13.40
2022-10-18T19:24:27.583Z,15.00
2022-10-18T19:26:57.261Z,12.13
2022-10-18T19:29:29.350Z,12.63
2022-10-18T19:32:00.120Z,10.93
2022-10-18T19:34:31.789Z,11.67
2022-10-18T19:37:00.654Z,16.40
2022-10-18T19:39:30.432Z,10.73
2022-10-18T19:42:18.689Z,9.43
2022-10-18T19:44:50.489Z,20.83
2022-10-18T19:47:18.514Z,13.27
2022-10-18T19:49:48.487Z,18.03
2022-10-18T19:52:18.688Z,13.60
2022-10-18T19:54:48.751Z,14.87
2022-10-18T19:57:16.573Z,13.00
2022-10-18T19:59:44.588Z,13.73
2022-10-18T20:02:14.165Z,14.27
2022-10-18T20:04:41.926Z,11.23
2022-10-18T20:07:11.362Z,17.00
2022-10-18T20:09:40.761Z,16.50
2022-10-18T20:12:09.758Z,16.53
2022-10-18T20:14:37.505Z,16.80
2022-10-18T20:17:06.157Z,16.07
2022-10-18T20:19:33.917Z,12.63
2022-10-18T20:22:01.659Z,18.90
2022-10-18T20:24:30.889Z,14.03
2022-10-18T20:26:58.634Z,16.53
2022-10-18T20:29:26.432Z,23.97
2022-10-18T20:31:55.588Z,19.20
2022-10-18T20:34:25.847Z,18.40
2022-10-18T20:36:54.690Z,21.60
2022-10-18T20:39:22.699Z,20.10
2022-10-18T20:41:51.860Z,23.43
2022-10-18T20:44:20.803Z,20.33
2022-10-18T20:46:48.548Z,16.40
2022-10-18T20:49:17.090Z,21.37
2022-10-18T20:51:45.361Z,24.10
2022-10-18T20:54:13.141Z,19.30
2022-10-18T20:56:41.254Z,21.97
2022-10-18T20:59:11.413Z,20.17
2022-10-18T21:01:39.779Z,19.03
2022-10-18T21:04:10.090Z,16.00
2022-10-18T21:06:40.868Z,17.47
2022-10-18T21:09:12.667Z,18.70
2022-10-18T21:11:44.621Z,18.73
2022-10-18T21:14:18.525Z,17.53
2022-10-18T21:16:47.258Z,17.63
2022-10-18T21:19:18.629Z,18.67
2022-10-18T21:21:51.881Z,17.47
2022-10-18T21:24:23.868Z,15.30
2022-10-18T21:26:52.509Z,14.80
2022-10-18T21:29:22.952Z,15.90
2022-10-18T21:31:55.021Z,14.63
2022-10-18T21:34:22.915Z,12.83
2022-10-18T21:36:51.070Z,14.87
2022-10-18T21:39:38.876Z,13.60
2022-10-18T21:42:12.222Z,14.07
2022-10-18T21:44:41.390Z,10.23
2022-10-18T21:47:15.548Z,13.20
2022-10-18T21:49:43.258Z,12.30
2022-10-18T21:52:12.075Z,16.03
2022-10-18T21:54:39.791Z,17.17
2022-10-18T21:57:07.573Z,16.20
2022-10-18T21:59:35.315Z,13.67
2022-10-18T22:02:04.448Z,14.33
2022-10-18T22:04:35.967Z,14.03
2022-10-18T22:07:04.752Z,12.50
2022-10-18T22:09:32.656Z,14.00
2022-10-18T22:12:00.483Z,10.87
2022-10-18T22:14:28.298Z,11.57
2022-10-18T22:16:56.080Z,15.97
2022-10-18T22:19:26.365Z,16.00
2022-10-18T22:21:54.215Z,13.07
2022-10-18T22:24:21.927Z,18.27
2022-10-18T22:26:50.997Z,10.37
2022-10-18T22:29:21.189Z,12.63
2022-10-18T22:31:52.110Z,17.37
2022-10-18T22:34:24.140Z,16.57
2022-10-18T22:36:53.823Z,17.40
2022-10-18T22:39:21.900Z,17.77
2022-10-18T22:41:55.504Z,11.90
2022-10-18T22:44:23.653Z,18.10
2022-10-18T22:46:51.441Z,12.50
2022-10-18T22:49:19.230Z,12.67
2022-10-18T22:51:46.980Z,11.17
2022-10-18T22:54:16.245Z,12.97
2022-10-18T22:56:44.042Z,13.67
2022-10-18T22:59:11.832Z,10.93
2022-10-18T23:01:39.575Z,13.67
2022-10-18T23:04:08.600Z,18.17
2022-10-18T23:06:38.948Z,11.80
2022-10-18T23:09:10.264Z,12.50
2022-10-18T23:11:39.339Z,18.43
2022-10-18T23:14:07.504Z,16.43
2022-10-18T23:16:35.577Z,13.73
2022-10-18T23:19:04.145Z,14.37
2022-10-18T23:21:34.250Z,13.60
2022-10-18T23:24:02.159Z,17.97
2022-10-18T23:26:30.667Z,18.47
2022-10-18T23:29:01.399Z,18.60
2022-10-18T23:31:32.138Z,15.53
2022-10-18T23:34:04.587Z,15.17
2022-10-18T23:36:35.899Z,19.87
2022-10-18T23:39:04.946Z,18.67
2022-10-18T23:41:33.293Z,14.80
2022-10-18T23:44:02.590Z,19.53
2022-10-18T23:46:30.346Z,23.17
2022-10-18T23:48:58.092Z,22.53
2022-10-18T23:51:25.832Z,21.63
2022-10-18T23:53:53.880Z,21.07
2022-10-18T23:56:21.692Z,19.80
2022-10-18T23:58:49.446Z,19.43
